Soaring Guidance
Issued by NWS Reno, NV

Home | Current Version | Previous Version | Text Only | Print | Product List | Glossary On
Versions: 1 2 3 4 5 6 7 8 9 10 11 12 13
000
UXUS97 KREV 271346
SRGREV

SOARING FORECAST
NATIONAL WEATHER SERVICE - RENO NV
700 AM PDT MON JUL 27 2015

THIS SOARING FORECAST IS FOR THE EASTERN SIERRA AND WESTERN NEVADA
WITH SPECIFIC INDICES FOR THE GREATER RENO AREA.

THIS FORECAST IS PREPARED DAILY BY 700 AM AND IS NOT UPDATED.

FOR CURRENT FLIGHT CONDITIONS...FORECASTS...AND ADVISORIES...ACCESS
YOUR LOCAL BRIEFING OUTLET OR FLIGHT SERVICE STATION.

*******************************************************************
FORECASTED LOCAL INDICES FOR RENO:        TODAY     YESTERDAY
FORECASTED MAX TEMP AT RENO (DEG F).....     85          89
FORECASTED TRIGGER TEMPERATURE (DEG F)..     65          76
   EXCEEDED YESTERDAY BY 1055 AM PDT
FORECASTED MAXIMUM ALTITUDE (FT MSL)....  18000       13700
FORECASTED SOARING INDEX (FPM)..........    993         711
FORECASTED K-INDEX.........VALID 18Z....     17           2
FORECASTED K-INDEX.........VALID 00Z....     12          16
FORECASTED LIFTED INDEX....VALID 18Z....      5          11
FORECASTED LIFTED INDEX....VALID 00Z....      7           6

AFTERNOON WINDS ALOFT FORECAST
MSL (FT) WIND/TEMP
9000  9900/+12
10000 9903/+09
12000 2609/+04
14000 2612/+00
16000 2716/-04
18000 2827/-08
24000 2733/-20
30000 2742/-37
34000 2650/-46
39000 2751/-57

SLIDE MOUNTAIN DATA:
     DATE       TIME     TEMP  DEWPT   RH         WIND (MPH)
                        (F)   (F)           | DIR  SPEED GUST
2015-07-27    05:50      40    29     70    | 187    1    5
2015-07-27    05:30      40    30     71    | 208    3    6
2015-07-27    05:20      40    30     73    | 160    2    5
2015-07-27    05:00      40    32     77    | 251    1    4

RENO TAF FORECAST:
KRNO 271120Z 2712/2812 02008KT P6SM SKC
     FM280400 VRB03KT P6SM SKC

CARSON CITY TAF FORECAST:
KCXP 271120Z 2712/2812 02008KT P6SM SKC
     FM280400 VRB03KT P6SM SKC

OUTLOOK FOR THE RENO-CARSON CITY-MINDEN AREA:
.TUESDAY...SUNNY. HIGHS 83 TO 88. LIGHT WINDS BECOMING EAST
AROUND 10 MPH IN THE AFTERNOON.

SUNRISE AND SUNSET
JULY 27 2015..........SUNRISE   554 AM PDT   SUNSET   817 PM PDT
JULY 28 2015..........SUNRISE   555 AM PDT   SUNSET   816 PM PDT



USA.gov is the U.S. government's official web portal to all federal, state and local government web resources and services.